sensor_id;sensor_type;location;lat;lon;timestamp;pressure;altitude;pressure_sealevel;temperature;humidity
20156;BME280;10238;49.556;10.956;2023-04-01T00:01:49;96837.00;;;8.04;100.00
20156;BME280;10238;49.556;10.956;2023-04-01T00:04:37;96833.91;;;8.01;100.00
20156;BME280;10238;49.556;10.956;2023-04-01T00:07:25;96827.28;;;7.97;100.00
20156;BME280;10238;49.556;10.956;2023-04-01T00:10:16;96838.94;;;8.10;100.00
20156;BME280;10238;49.556;10.956;2023-04-01T00:13:04;96828.00;;;8.13;100.00
20156;BME280;10238;49.556;10.956;2023-04-01T00:15:55;96830.75;;;8.05;100.00
20156;BME280;10238;49.556;10.956;2023-04-01T00:18:43;96824.25;;;8.08;100.00
20156;BME280;10238;49.556;10.956;2023-04-01T00:21:31;96819.06;;;8.14;100.00
20156;BME280;10238;49.556;10.956;2023-04-01T00:24:19;96824.34;;;8.14;100.00
20156;BME280;10238;49.556;10.956;2023-04-01T00:27:07;96836.63;;;8.38;100.00
20156;BME280;10238;49.556;10.956;2023-04-01T00:29:55;96833.56;;;8.26;100.00
20156;BME280;10238;49.556;10.956;2023-04-01T00:32:44;96833.75;;;8.25;100.00
20156;BME280;10238;49.556;10.956;2023-04-01T00:35:32;96841.06;;;8.23;100.00
20156;BME280;10238;49.556;10.956;2023-04-01T00:38:20;96833.44;;;8.20;100.00
20156;BME280;10238;49.556;10.956;2023-04-01T00:41:09;96832.44;;;8.21;100.00
20156;BME280;10238;49.556;10.956;2023-04-01T00:44:16;96840.34;;;8.29;100.00
20156;BME280;10238;49.556;10.956;2023-04-01T00:47:04;96833.97;;;8.38;100.00
20156;BME280;10238;49.556;10.956;2023-04-01T00:49:55;96833.34;;;8.36;100.00
20156;BME280;10238;49.556;10.956;2023-04-01T00:52:43;96836.91;;;8.43;100.00
20156;BME280;10238;49.556;10.956;2023-04-01T00:55:33;96831.13;;;8.39;100.00
20156;BME280;10238;49.556;10.956;2023-04-01T00:58:27;96834.63;;;8.40;100.00
20156;BME280;10238;49.556;10.956;2023-04-01T01:01:17;96822.59;;;8.52;100.00
20156;BME280;10238;49.556;10.956;2023-04-01T01:04:05;96828.53;;;8.54;100.00
20156;BME280;10238;49.556;10.956;2023-04-01T01:07:00;96833.81;;;8.54;100.00
20156;BME280;10238;49.556;10.956;2023-04-01T01:09:57;96826.63;;;8.48;100.00
20156;BME280;10238;49.556;10.956;2023-04-01T01:12:56;96832.53;;;8.50;100.00
20156;BME280;10238;49.556;10.956;2023-04-01T01:15:55;96829.13;;;8.64;100.00
20156;BME280;10238;49.556;10.956;2023-04-01T01:18:49;96829.84;;;8.58;100.00
20156;BME280;10238;49.556;10.956;2023-04-01T01:21:55;96820.59;;;8.54;100.00
20156;BME280;10238;49.556;10.956;2023-04-01T01:25:00;96827.56;;;8.55;100.00
20156;BME280;10238;49.556;10.956;2023-04-01T01:28:01;96832.13;;;8.61;100.00
20156;BME280;10238;49.556;10.956;2023-04-01T01:30:57;96835.94;;;8.58;100.00
20156;BME280;10238;49.556;10.956;2023-04-01T01:34:04;96828.34;;;8.55;100.00
20156;BME280;10238;49.556;10.956;2023-04-01T01:37:01;96819.25;;;8.58;100.00
20156;BME280;10238;49.556;10.956;2023-04-01T01:39:53;96820.72;;;8.60;100.00
20156;BME280;10238;49.556;10.956;2023-04-01T01:42:46;96823.19;;;8.62;100.00
20156;BME280;10238;49.556;10.956;2023-04-01T01:45:36;96815.41;;;8.60;100.00
20156;BME280;10238;49.556;10.956;2023-04-01T01:48:28;96816.31;;;8.67;100.00
20156;BME280;10238;49.556;10.956;2023-04-01T01:51:17;96805.66;;;8.61;100.00
20156;BME280;10238;49.556;10.956;2023-04-01T01:54:07;96818.06;;;8.60;100.00
20156;BME280;10238;49.556;10.956;2023-04-01T01:57:03;96807.66;;;8.59;100.00
20156;BME280;10238;49.556;10.956;2023-04-01T01:59:55;96805.91;;;8.66;100.00
20156;BME280;10238;49.556;10.956;2023-04-01T02:02:46;96802.81;;;8.62;100.00
20156;BME280;10238;49.556;10.956;2023-04-01T02:05:36;96792.94;;;8.56;100.00
20156;BME280;10238;49.556;10.956;2023-04-01T02:08:28;96798.06;;;8.58;100.00
20156;BME280;10238;49.556;10.956;2023-04-01T02:11:24;96782.34;;;8.56;100.00
20156;BME280;10238;49.556;10.956;2023-04-01T02:14:15;96790.47;;;8.55;100.00
20156;BME280;10238;49.556;10.956;2023-04-01T02:17:07;96799.03;;;8.57;100.00
20156;BME280;10238;49.556;10.956;2023-04-01T02:19:58;96790.47;;;8.55;100.00
20156;BME280;10238;49.556;10.956;2023-04-01T02:22:49;96787.19;;;8.53;100.00
20156;BME280;10238;49.556;10.956;2023-04-01T02:25:38;96790.91;;;8.58;100.00
20156;BME280;10238;49.556;10.956;2023-04-01T02:28:29;96792.22;;;8.62;100.00
20156;BME280;10238;49.556;10.956;2023-04-01T02:31:19;96804.47;;;8.63;100.00
20156;BME280;10238;49.556;10.956;2023-04-01T02:34:07;96796.22;;;8.58;100.00
20156;BME280;10238;49.556;10.956;2023-04-01T02:36:56;96804.34;;;8.57;100.00
20156;BME280;10238;49.556;10.956;2023-04-01T02:39:44;96799.53;;;8.60;100.00
20156;BME280;10238;49.556;10.956;2023-04-01T02:42:32;96805.66;;;8.61;100.00
20156;BME280;10238;49.556;10.956;2023-04-01T02:45:22;96806.81;;;8.58;100.00
20156;BME280;10238;49.556;10.956;2023-04-01T02:48:10;96811.38;;;8.64;100.00
20156;BME280;10238;49.556;10.956;2023-04-01T02:50:59;96816.41;;;8.59;100.00
20156;BME280;10238;49.556;10.956;2023-04-01T02:53:47;96807.66;;;8.59;100.00
20156;BME280;10238;49.556;10.956;2023-04-01T02:56:35;96820.22;;;8.57;100.00
20156;BME280;10238;49.556;10.956;2023-04-01T02:59:23;96811.88;;;8.68;100.00
20156;BME280;10238;49.556;10.956;2023-04-01T03:02:12;96819.50;;;8.63;100.00
20156;BME280;10238;49.556;10.956;2023-04-01T03:05:00;96814.22;;;8.63;100.00
20156;BME280;10238;49.556;10.956;2023-04-01T03:07:48;96817.41;;;8.58;100.00
20156;BME280;10238;49.556;10.956;2023-04-01T03:10:36;96823.19;;;8.62;100.00
20156;BME280;10238;49.556;10.956;2023-04-01T03:13:24;96810.47;;;8.57;100.00
20156;BME280;10238;49.556;10.956;2023-04-01T03:16:12;96815.75;;;8.57;100.00
20156;BME280;10238;49.556;10.956;2023-04-01T03:19:01;96818.22;;;8.59;100.00
20156;BME280;10238;49.556;10.956;2023-04-01T03:21:50;96811.75;;;8.61;100.00
20156;BME280;10238;49.556;10.956;2023-04-01T03:24:37;96812.56;;;8.62;100.00
20156;BME280;10238;49.556;10.956;2023-04-01T03:27:25;96816.88;;;8.63;100.00
20156;BME280;10238;49.556;10.956;2023-04-01T03:30:13;96820.53;;;8.62;100.00
20156;BME280;10238;49.556;10.956;2023-04-01T03:33:03;96822.34;;;8.61;100.00
20156;BME280;10238;49.556;10.956;2023-04-01T03:35:53;96824.00;;;8.62;100.00
20156;BME280;10238;49.556;10.956;2023-04-01T03:38:42;96826.19;;;8.59;100.00
20156;BME280;10238;49.556;10.956;2023-04-01T03:41:32;96831.47;;;8.59;100.00
20156;BME280;10238;49.556;10.956;2023-04-01T03:44:20;96822.53;;;8.60;100.00
20156;BME280;10238;49.556;10.956;2023-04-01T03:47:08;96828.00;;;8.58;100.00
20156;BME280;10238;49.556;10.956;2023-04-01T03:49:57;96824.91;;;8.55;100.00
20156;BME280;10238;49.556;10.956;2023-04-01T03:52:46;96821.59;;;8.53;100.00
20156;BME280;10238;49.556;10.956;2023-04-01T03:55:36;96832.19;;;8.53;100.00
20156;BME280;10238;49.556;10.956;2023-04-01T03:58:24;96832.66;;;8.56;100.00
20156;BME280;10238;49.556;10.956;2023-04-01T04:01:20;96835.19;;;8.50;100.00
20156;BME280;10238;49.556;10.956;2023-04-01T04:04:11;96830.91;;;8.49;100.00
20156;BME280;10238;49.556;10.956;2023-04-01T04:07:01;96834.34;;;8.49;100.00
20156;BME280;10238;49.556;10.956;2023-04-01T04:09:50;96845.59;;;8.51;100.00
20156;BME280;10238;49.556;10.956;2023-04-01T04:12:38;96839.78;;;8.56;100.00
20156;BME280;10238;49.556;10.956;2023-04-01T04:15:26;96838.16;;;8.55;100.00
20156;BME280;10238;49.556;10.956;2023-04-01T04:18:14;96839.97;;;8.54;100.00
20156;BME280;10238;49.556;10.956;2023-04-01T04:21:03;96843.78;;;8.52;100.00
20156;BME280;10238;49.556;10.956;2023-04-01T04:23:51;96846.44;;;8.52;100.00
20156;BME280;10238;49.556;10.956;2023-04-01T04:26:40;96851.22;;;8.56;100.00
20156;BME280;10238;49.556;10.956;2023-04-01T04:29:28;96850.38;;;8.56;100.00
20156;BME280;10238;49.556;10.956;2023-04-01T04:32:15;96849.72;;;8.54;100.00
20156;BME280;10238;49.556;10.956;2023-04-01T04:35:04;96847.06;;;8.54;100.00
20156;BME280;10238;49.556;10.956;2023-04-01T04:37:53;96851.38;;;8.55;100.00
20156;BME280;10238;49.556;10.956;2023-04-01T04:40:41;96855.97;;;8.61;100.00
20156;BME280;10238;49.556;10.956;2023-04-01T04:43:31;96862.25;;;8.60;100.00
20156;BME280;10238;49.556;10.956;2023-04-01T04:46:19;96852.00;;;8.57;100.00
20156;BME280;10238;49.556;10.956;2023-04-01T04:49:07;96857.47;;;8.55;100.00
20156;BME280;10238;49.556;10.956;2023-04-01T04:51:55;96853.03;;;8.56;100.00
20156;BME280;10238;49.556;10.956;2023-04-01T04:54:43;96855.00;;;8.54;100.00
20156;BME280;10238;49.556;10.956;2023-04-01T04:57:32;96863.13;;;8.52;100.00
20156;BME280;10238;49.556;10.956;2023-04-01T05:00:21;96860.47;;;8.52;100.00
20156;BME280;10238;49.556;10.956;2023-04-01T05:03:09;96848.44;;;8.50;100.00
20156;BME280;10238;49.556;10.956;2023-04-01T05:05:58;96858.00;;;8.51;100.00
20156;BME280;10238;49.556;10.956;2023-04-01T05:08:46;96853.91;;;8.48;100.00
20156;BME280;10238;49.556;10.956;2023-04-01T05:11:34;96856.38;;;8.50;100.00
20156;BME280;10238;49.556;10.956;2023-04-01T05:14:22;96852.44;;;8.46;100.00
20156;BME280;10238;49.556;10.956;2023-04-01T05:17:12;96853.09;;;8.48;100.00
20156;BME280;10238;49.556;10.956;2023-04-01T05:20:00;96858.41;;;8.48;100.00
20156;BME280;10238;49.556;10.956;2023-04-01T05:22:48;96856.72;;;8.47;100.00
20156;BME280;10238;49.556;10.956;2023-04-01T05:25:38;96858.09;;;8.43;100.00
20156;BME280;10238;49.556;10.956;2023-04-01T05:28:26;96848.97;;;8.45;100.00
20156;BME280;10238;49.556;10.956;2023-04-01T05:31:14;96855.09;;;8.46;100.00
20156;BME280;10238;49.556;10.956;2023-04-01T05:34:04;96855.44;;;8.43;100.00
20156;BME280;10238;49.556;10.956;2023-04-01T05:36:51;96849.31;;;8.42;100.00
20156;BME280;10238;49.556;10.956;2023-04-01T05:39:39;96858.75;;;8.45;100.00
20156;BME280;10238;49.556;10.956;2023-04-01T05:42:30;96849.81;;;8.46;100.00
20156;BME280;10238;49.556;10.956;2023-04-01T05:45:18;96857.09;;;8.44;100.00
20156;BME280;10238;49.556;10.956;2023-04-01T05:48:07;96855.75;;;8.48;100.00
20156;BME280;10238;49.556;10.956;2023-04-01T05:50:58;96849.44;;;8.49;100.00
20156;BME280;10238;49.556;10.956;2023-04-01T05:53:46;96856.38;;;8.50;100.00
20156;BME280;10238;49.556;10.956;2023-04-01T05:56:34;96856.72;;;8.47;100.00
20156;BME280;10238;49.556;10.956;2023-04-01T05:59:22;96866.97;;;8.50;100.00
20156;BME280;10238;49.556;10.956;2023-04-01T06:02:10;96868.25;;;8.54;100.00
20156;BME280;10238;49.556;10.956;2023-04-01T06:05:03;96858.84;;;8.51;100.00
20156;BME280;10238;49.556;10.956;2023-04-01T06:08:05;96859.84;;;8.50;100.00
20156;BME280;10238;49.556;10.956;2023-04-01T06:11:04;96864.31;;;8.50;100.00
20156;BME280;10238;49.556;10.956;2023-04-01T06:14:20;96872.56;;;8.55;100.00
20156;BME280;10238;49.556;10.956;2023-04-01T06:17:24;96870.19;;;8.60;100.00
20156;BME280;10238;49.556;10.956;2023-04-01T06:20:20;96877.41;;;8.66;100.00
20156;BME280;10238;49.556;10.956;2023-04-01T06:23:34;96866.13;;;8.72;100.00
20156;BME280;10238;49.556;10.956;2023-04-01T06:26:28;96865.41;;;8.78;100.00
20156;BME280;10238;49.556;10.956;2023-04-01T06:29:38;96872.09;;;8.89;100.00
20156;BME280;10238;49.556;10.956;2023-04-01T06:32:41;96861.59;;;8.95;100.00
20156;BME280;10238;49.556;10.956;2023-04-01T06:39:11;96868.28;;;9.06;100.00
20156;BME280;10238;49.556;10.956;2023-04-01T06:42:14;96859.88;;;9.17;100.00
20156;BME280;10238;49.556;10.956;2023-04-01T06:45:15;96875.13;;;9.29;100.00
20156;BME280;10238;49.556;10.956;2023-04-01T06:48:19;96862.97;;;9.35;100.00
20156;BME280;10238;49.556;10.956;2023-04-01T06:51:21;96867.56;;;9.41;100.00
20156;BME280;10238;49.556;10.956;2023-04-01T06:54:16;96862.34;;;9.47;100.00
20156;BME280;10238;49.556;10.956;2023-04-01T06:57:18;96855.09;;;9.56;100.00
20156;BME280;10238;49.556;10.956;2023-04-01T07:00:13;96855.34;;;9.61;100.00
20156;BME280;10238;49.556;10.956;2023-04-01T07:03:19;96855.81;;;9.64;100.00
20156;BME280;10238;49.556;10.956;2023-04-01T07:06:13;96858.16;;;9.74;100.00
20156;BME280;10238;49.556;10.956;2023-04-01T07:09:05;96849.28;;;9.81;100.00
20156;BME280;10238;49.556;10.956;2023-04-01T07:11:59;96838.84;;;9.80;100.00
20156;BME280;10238;49.556;10.956;2023-04-01T07:14:48;96839.84;;;9.93;100.00
20156;BME280;10238;49.556;10.956;2023-04-01T07:17:40;96833.13;;;9.97;100.00
20156;BME280;10238;49.556;10.956;2023-04-01T07:20:30;96833.06;;;9.91;100.00
20156;BME280;10238;49.556;10.956;2023-04-01T07:23:24;96835.59;;;9.99;100.00
20156;BME280;10238;49.556;10.956;2023-04-01T07:26:17;96836.69;;;10.19;100.00
20156;BME280;10238;49.556;10.956;2023-04-01T07:29:11;96838.41;;;10.26;100.00
20156;BME280;10238;49.556;10.956;2023-04-01T07:32:22;96836.47;;;10.41;100.00
20156;BME280;10238;49.556;10.956;2023-04-01T07:35:22;96833.25;;;10.46;100.00
20156;BME280;10238;49.556;10.956;2023-04-01T07:38:19;96830.00;;;10.50;100.00
20156;BME280;10238;49.556;10.956;2023-04-01T07:41:19;96838.63;;;10.52;100.00
20156;BME280;10238;49.556;10.956;2023-04-01T07:44:17;96836.94;;;10.72;100.00
20156;BME280;10238;49.556;10.956;2023-04-01T07:47:28;96847.84;;;10.77;100.00
20156;BME280;10238;49.556;10.956;2023-04-01T07:50:27;96842.38;;;10.64;100.00
20156;BME280;10238;49.556;10.956;2023-04-01T07:53:21;96844.91;;;10.72;100.00
20156;BME280;10238;49.556;10.956;2023-04-01T07:56:17;96848.84;;;10.76;100.00
20156;BME280;10238;49.556;10.956;2023-04-01T07:59:15;96844.91;;;10.72;100.00
20156;BME280;10238;49.556;10.956;2023-04-01T08:02:11;96838.28;;;10.89;100.00
20156;BME280;10238;49.556;10.956;2023-04-01T08:05:12;96840.56;;;10.92;100.00
20156;BME280;10238;49.556;10.956;2023-04-01T08:08:09;96829.94;;;10.92;100.00
20156;BME280;10238;49.556;10.956;2023-04-01T08:11:10;96838.16;;;10.98;100.00
20156;BME280;10238;49.556;10.956;2023-04-01T08:14:07;96839.47;;;11.08;100.00
20156;BME280;10238;49.556;10.956;2023-04-01T08:17:02;96840.75;;;11.19;100.00
20156;BME280;10238;49.556;10.956;2023-04-01T08:20:01;96830.41;;;11.02;100.00
20156;BME280;10238;49.556;10.956;2023-04-01T08:22:58;96848.97;;;11.24;100.00
20156;BME280;10238;49.556;10.956;2023-04-01T08:25:51;96833.44;;;11.27;100.00
20156;BME280;10238;49.556;10.956;2023-04-01T08:28:44;96837.94;;;11.27;100.00
20156;BME280;10238;49.556;10.956;2023-04-01T08:31:38;96848.50;;;11.48;100.00
20156;BME280;10238;49.556;10.956;2023-04-01T08:34:34;96837.97;;;11.33;100.00
20156;BME280;10238;49.556;10.956;2023-04-01T08:37:28;96852.34;;;11.39;100.00
20156;BME280;10238;49.556;10.956;2023-04-01T08:40:37;96838.06;;;11.53;100.00
20156;BME280;10238;49.556;10.956;2023-04-01T08:43:51;96837.34;;;11.31;100.00
20156;BME280;10238;49.556;10.956;2023-04-01T08:47:04;96839.91;;;11.52;100.00
20156;BME280;10238;49.556;10.956;2023-04-01T08:53:27;96830.94;;;11.60;100.00
20156;BME280;10238;49.556;10.956;2023-04-01T08:56:22;96819.25;;;11.48;100.00
20156;BME280;10238;49.556;10.956;2023-04-01T08:59:32;96827.03;;;11.56;100.00
20156;BME280;10238;49.556;10.956;2023-04-01T09:06:33;96830.72;;;11.55;100.00
20156;BME280;10238;49.556;10.956;2023-04-01T09:13:25;96833.00;;;11.58;100.00
20156;BME280;10238;49.556;10.956;2023-04-01T09:16:31;96844.44;;;11.52;100.00
20156;BME280;10238;49.556;10.956;2023-04-01T09:19:35;96833.66;;;11.66;100.00
20156;BME280;10238;49.556;10.956;2023-04-01T09:22:45;96843.31;;;11.40;100.00
20156;BME280;10238;49.556;10.956;2023-04-01T09:25:50;96835.16;;;11.75;100.00
20156;BME280;10238;49.556;10.956;2023-04-01T09:28:45;96849.69;;;11.79;100.00
20156;BME280;10238;49.556;10.956;2023-04-01T09:31:49;96843.47;;;11.66;100.00
20156;BME280;10238;49.556;10.956;2023-04-01T09:34:53;96841.91;;;11.78;100.00
20156;BME280;10238;49.556;10.956;2023-04-01T09:37:53;96843.53;;;11.79;100.00
20156;BME280;10238;49.556;10.956;2023-04-01T09:40:53;96844.38;;;11.86;100.00
20156;BME280;10238;49.556;10.956;2023-04-01T09:44:00;96848.84;;;11.72;100.00
20156;BME280;10238;49.556;10.956;2023-04-01T09:47:00;96852.59;;;11.91;100.00
20156;BME280;10238;49.556;10.956;2023-04-01T10:00:09;96865.69;;;11.86;100.00
20156;BME280;10238;49.556;10.956;2023-04-01T10:03:31;96878.00;;;11.87;100.00
20156;BME280;10238;49.556;10.956;2023-04-01T10:17:43;96874.22;;;11.41;100.00
20156;BME280;10238;49.556;10.956;2023-04-01T10:20:55;96873.09;;;11.22;100.00
20156;BME280;10238;49.556;10.956;2023-04-01T10:24:23;96877.78;;;11.48;100.00
20156;BME280;10238;49.556;10.956;2023-04-01T10:34:19;96869.59;;;11.49;100.00
20156;BME280;10238;49.556;10.956;2023-04-01T10:37:32;96875.81;;;11.01;100.00
20156;BME280;10238;49.556;10.956;2023-04-01T10:40:48;96873.53;;;11.26;100.00
20156;BME280;10238;49.556;10.956;2023-04-01T10:44:27;96866.16;;;11.21;100.00
20156;BME280;10238;49.556;10.956;2023-04-01T10:51:20;96872.38;;;10.79;100.00
20156;BME280;10238;49.556;10.956;2023-04-01T10:54:23;96878.16;;;10.89;100.00
20156;BME280;10238;49.556;10.956;2023-04-01T10:57:39;96877.16;;;11.18;100.00
20156;BME280;10238;49.556;10.956;2023-04-01T11:08:07;96867.72;;;11.50;100.00
20156;BME280;10238;49.556;10.956;2023-04-01T11:21:50;96870.56;;;11.42;100.00
20156;BME280;10238;49.556;10.956;2023-04-01T11:28:43;96868.88;;;11.34;100.00
20156;BME280;10238;49.556;10.956;2023-04-01T11:34:56;96869.38;;;11.17;100.00
20156;BME280;10238;49.556;10.956;2023-04-01T11:37:52;96864.34;;;11.28;100.00
20156;BME280;10238;49.556;10.956;2023-04-01T11:40:57;96865.69;;;11.18;100.00
20156;BME280;10238;49.556;10.956;2023-04-01T11:43:54;96860.72;;;11.36;100.00
20156;BME280;10238;49.556;10.956;2023-04-01T11:46:56;96863.84;;;11.46;100.00
20156;BME280;10238;49.556;10.956;2023-04-01T11:50:17;96862.66;;;11.55;100.00
20156;BME280;10238;49.556;10.956;2023-04-01T11:53:26;96877.47;;;11.36;100.00
20156;BME280;10238;49.556;10.956;2023-04-01T11:56:29;96879.41;;;11.49;100.00
20156;BME280;10238;49.556;10.956;2023-04-01T11:59:39;96874.44;;;11.39;100.00
20156;BME280;10238;49.556;10.956;2023-04-01T12:02:34;96877.53;;;11.43;100.00
20156;BME280;10238;49.556;10.956;2023-04-01T12:05:42;96880.66;;;11.53;100.00
20156;BME280;10238;49.556;10.956;2023-04-01T12:08:37;96884.16;;;11.60;100.00
20156;BME280;10238;49.556;10.956;2023-04-01T12:11:37;96879.13;;;11.65;100.00
20156;BME280;10238;49.556;10.956;2023-04-01T12:14:36;96879.53;;;11.41;100.00
20156;BME280;10238;49.556;10.956;2023-04-01T12:17:37;96881.22;;;11.42;100.00
20156;BME280;10238;49.556;10.956;2023-04-01T12:20:36;96870.50;;;11.63;100.00
20156;BME280;10238;49.556;10.956;2023-04-01T12:27:04;96880.56;;;11.40;100.00
20156;BME280;10238;49.556;10.956;2023-04-01T12:34:06;96880.75;;;11.66;100.00
20156;BME280;10238;49.556;10.956;2023-04-01T12:37:10;96877.53;;;11.77;100.00
20156;BME280;10238;49.556;10.956;2023-04-01T12:40:27;96881.78;;;11.71;100.00
20156;BME280;10238;49.556;10.956;2023-04-01T12:46:57;96881.78;;;11.65;100.00
20156;BME280;10238;49.556;10.956;2023-04-01T12:53:14;96877.69;;;11.69;100.00
20156;BME280;10238;49.556;10.956;2023-04-01T12:56:12;96880.44;;;11.48;100.00
20156;BME280;10238;49.556;10.956;2023-04-01T12:59:26;96877.34;;;11.51;100.00
20156;BME280;10238;49.556;10.956;2023-04-01T13:02:26;96883.41;;;11.32;100.00
20156;BME280;10238;49.556;10.956;2023-04-01T13:08:55;96886.75;;;11.47;100.00
20156;BME280;10238;49.556;10.956;2023-04-01T13:11:58;96894.50;;;11.42;100.00
20156;BME280;10238;49.556;10.956;2023-04-01T13:18:31;96907.09;;;11.27;100.00
20156;BME280;10238;49.556;10.956;2023-04-01T13:21:34;96896.16;;;11.43;100.00
20156;BME280;10238;49.556;10.956;2023-04-01T13:24:42;96897.00;;;11.50;100.00
20156;BME280;10238;49.556;10.956;2023-04-01T13:27:42;96909.50;;;11.22;100.00
20156;BME280;10238;49.556;10.956;2023-04-01T13:30:34;96901.22;;;11.38;100.00
20156;BME280;10238;49.556;10.956;2023-04-01T13:33:33;96908.53;;;11.29;100.00
20156;BME280;10238;49.556;10.956;2023-04-01T13:36:32;96914.91;;;11.35;100.00
20156;BME280;10238;49.556;10.956;2023-04-01T13:42:49;96909.69;;;11.20;100.00
20156;BME280;10238;49.556;10.956;2023-04-01T13:45:53;96908.00;;;11.40;100.00
20156;BME280;10238;49.556;10.956;2023-04-01T13:52:08;96910.31;;;11.50;100.00
20156;BME280;10238;49.556;10.956;2023-04-01T13:55:39;96905.22;;;11.55;100.00
20156;BME280;10238;49.556;10.956;2023-04-01T13:58:53;96914.66;;;11.57;100.00
20156;BME280;10238;49.556;10.956;2023-04-01T14:01:48;96916.28;;;11.52;100.00
20156;BME280;10238;49.556;10.956;2023-04-01T14:04:53;96919.53;;;11.54;100.00
20156;BME280;10238;49.556;10.956;2023-04-01T14:07:55;96912.19;;;11.56;100.00
20156;BME280;10238;49.556;10.956;2023-04-01T14:10:53;96915.25;;;11.53;100.00
20156;BME280;10238;49.556;10.956;2023-04-01T14:13:53;96920.34;;;11.48;100.00
20156;BME280;10238;49.556;10.956;2023-04-01T14:17:14;96922.75;;;11.43;100.00
20156;BME280;10238;49.556;10.956;2023-04-01T14:20:22;96937.94;;;11.49;100.00
20156;BME280;10238;49.556;10.956;2023-04-01T14:23:23;96930.75;;;11.43;100.00
20156;BME280;10238;49.556;10.956;2023-04-01T14:29:38;96937.66;;;11.10;100.00
20156;BME280;10238;49.556;10.956;2023-04-01T14:32:49;96933.31;;;11.30;100.00
20156;BME280;10238;49.556;10.956;2023-04-01T14:35:46;96936.63;;;11.38;100.00
20156;BME280;10238;49.556;10.956;2023-04-01T14:38:51;96942.00;;;11.17;100.00
20156;BME280;10238;49.556;10.956;2023-04-01T14:41:48;96939.41;;;11.24;100.00
20156;BME280;10238;49.556;10.956;2023-04-01T14:44:58;96943.28;;;11.21;100.00
20156;BME280;10238;49.556;10.956;2023-04-01T14:47:51;96947.75;;;11.21;100.00
20156;BME280;10238;49.556;10.956;2023-04-01T14:50:45;96943.94;;;11.30;100.00
20156;BME280;10238;49.556;10.956;2023-04-01T14:53:41;96950.22;;;11.22;100.00
20156;BME280;10238;49.556;10.956;2023-04-01T14:56:44;96949.47;;;11.28;100.00
20156;BME280;10238;49.556;10.956;2023-04-01T14:59:40;96952.50;;;11.25;100.00
20156;BME280;10238;49.556;10.956;2023-04-01T15:02:45;96955.69;;;11.14;100.00
20156;BME280;10238;49.556;10.956;2023-04-01T15:05:44;96964.13;;;10.97;100.00
20156;BME280;10238;49.556;10.956;2023-04-01T15:08:47;96957.53;;;10.92;100.00
20156;BME280;10238;49.556;10.956;2023-04-01T15:11:50;96952.28;;;10.99;100.00
20156;BME280;10238;49.556;10.956;2023-04-01T15:15:02;96953.44;;;11.11;100.00
20156;BME280;10238;49.556;10.956;2023-04-01T15:18:11;96954.28;;;11.18;100.00
20156;BME280;10238;49.556;10.956;2023-04-01T15:24:20;96959.03;;;11.23;100.00
20156;BME280;10238;49.556;10.956;2023-04-01T15:27:27;96961.81;;;11.15;100.00
20156;BME280;10238;49.556;10.956;2023-04-01T15:30:27;96960.81;;;11.16;100.00
20156;BME280;10238;49.556;10.956;2023-04-01T15:33:35;96971.41;;;11.09;100.00
20156;BME280;10238;49.556;10.956;2023-04-01T15:36:33;96970.00;;;11.13;100.00
20156;BME280;10238;49.556;10.956;2023-04-01T15:39:37;96969.22;;;11.19;100.00
20156;BME280;10238;49.556;10.956;2023-04-01T15:42:40;96977.78;;;11.15;100.00
20156;BME280;10238;49.556;10.956;2023-04-01T15:45:40;96983.06;;;11.08;100.00
20156;BME280;10238;49.556;10.956;2023-04-01T15:48:40;96974.69;;;11.11;100.00
20156;BME280;10238;49.556;10.956;2023-04-01T15:51:54;96988.38;;;11.08;100.00
20156;BME280;10238;49.556;10.956;2023-04-01T15:55:11;96992.28;;;10.91;100.00
20156;BME280;10238;49.556;10.956;2023-04-01T15:58:20;96997.03;;;10.95;100.00
20156;BME280;10238;49.556;10.956;2023-04-01T16:01:19;96989.94;;;11.02;100.00
20156;BME280;10238;49.556;10.956;2023-04-01T16:04:42;96995.59;;;10.93;100.00
20156;BME280;10238;49.556;10.956;2023-04-01T16:07:51;96998.63;;;10.90;100.00
20156;BME280;10238;49.556;10.956;2023-04-01T16:10:52;96999.66;;;10.89;100.00
20156;BME280;10238;49.556;10.956;2023-04-01T16:13:53;96998.31;;;10.78;100.00
20156;BME280;10238;49.556;10.956;2023-04-01T16:16:59;97009.69;;;10.72;100.00
20156;BME280;10238;49.556;10.956;2023-04-01T16:19:53;97004.19;;;10.74;100.00
20156;BME280;10238;49.556;10.956;2023-04-01T16:22:53;97011.78;;;10.77;100.00
20156;BME280;10238;49.556;10.956;2023-04-01T16:25:45;97008.28;;;10.55;100.00
20156;BME280;10238;49.556;10.956;2023-04-01T16:28:42;97016.44;;;10.54;100.00
20156;BME280;10238;49.556;10.956;2023-04-01T16:31:43;97020.41;;;10.43;100.00
20156;BME280;10238;49.556;10.956;2023-04-01T16:34:38;97016.72;;;10.44;100.00
20156;BME280;10238;49.556;10.956;2023-04-01T16:37:33;97016.91;;;10.43;100.00
20156;BME280;10238;49.556;10.956;2023-04-01T16:40:37;97020.75;;;10.40;100.00
20156;BME280;10238;49.556;10.956;2023-04-01T16:43:30;97026.25;;;10.39;100.00
20156;BME280;10238;49.556;10.956;2023-04-01T16:46:33;97022.41;;;10.41;100.00
20156;BME280;10238;49.556;10.956;2023-04-01T16:49:32;97031.28;;;10.34;100.00
20156;BME280;10238;49.556;10.956;2023-04-01T16:52:35;97030.03;;;10.30;100.00
20156;BME280;10238;49.556;10.956;2023-04-01T16:55:33;97031.97;;;10.21;100.00
20156;BME280;10238;49.556;10.956;2023-04-01T16:58:24;97033.97;;;10.19;100.00
20156;BME280;10238;49.556;10.956;2023-04-01T17:01:16;97038.44;;;10.04;100.00
20156;BME280;10238;49.556;10.956;2023-04-01T17:04:16;97041.69;;;10.14;100.00
20156;BME280;10238;49.556;10.956;2023-04-01T17:07:16;97040.47;;;10.02;100.00